Time;durP1;ratioP1;P1;durP2;ratioP2;P2;SDS_P1;SDS_P2;PMS_P1;PMS_P2;Temp;Humidity;BMP_temperature;BMP_pressure;BME280_temperature;BME280_humidity;BME280_pressure;Samples;Min_cycle;Max_cycle;Signal;HPM_P1;HPM_P2
2022/09/08 00:02:25;;;;;;;20.17;15.27;;;16.40;99.90;;;;;;4968112;28;20042;-79
2022/09/08 00:04:51;;;;;;;26.63;19.08;;;16.40;99.90;;;;;;4985609;28;20541;-79
2022/09/08 00:07:18;;;;;;;24.10;18.58;;;16.40;99.90;;;;;;4986728;28;20054;-79
2022/09/08 00:09:44;;;;;;;25.15;19.90;;;16.40;99.90;;;;;;4969615;28;20096;-78
2022/09/08 00:12:12;;;;;;;27.08;21.38;;;16.40;99.90;;;;;;4970091;28;20043;-78
2022/09/08 00:14:38;;;;;;;28.85;21.23;;;16.40;99.90;;;;;;4985562;28;20069;-79
2022/09/08 00:17:04;;;;;;;32.38;24.42;;;16.40;99.90;;;;;;4977845;28;20089;-79
2022/09/08 00:19:29;;;;;;;29.58;24.95;;;16.40;99.90;;;;;;4967235;28;20050;-79
2022/09/08 00:21:56;;;;;;;28.52;22.15;;;16.50;99.90;;;;;;4985664;28;20042;-79
2022/09/08 00:24:22;;;;;;;32.15;23.90;;;16.50;99.90;;;;;;4984480;28;20162;-81
2022/09/08 00:26:48;;;;;;;29.35;23.90;;;16.50;99.90;;;;;;4988958;28;20080;-80
2022/09/08 00:29:13;;;;;;;31.02;25.02;;;16.50;99.90;;;;;;4972783;28;21016;-79
2022/09/08 00:31:40;;;;;;;28.30;24.20;;;16.50;99.90;;;;;;4984619;28;20045;-79
2022/09/08 00:34:07;;;;;;;28.23;24.13;;;16.50;99.90;;;;;;4988861;28;20542;-79
2022/09/08 00:36:33;;;;;;;30.42;24.88;;;16.50;99.90;;;;;;4988796;28;20060;-79
2022/09/08 00:39:00;;;;;;;31.98;24.48;;;16.50;99.90;;;;;;4973216;28;20484;-78
2022/09/08 00:41:27;;;;;;;33.60;27.08;;;16.50;99.90;;;;;;4988604;28;20487;-79
2022/09/08 00:43:58;;;;;;;32.53;25.58;;;16.50;99.90;;;;;;4988022;28;20117;-80
2022/09/08 00:46:35;;;;;;;34.33;26.70;;;16.50;99.90;;;;;;4989119;28;20038;-80
2022/09/08 00:49:16;;;;;;;33.55;26.38;;;16.40;99.90;;;;;;4972953;28;20123;-79
2022/09/08 00:51:49;;;;;;;35.25;26.35;;;16.40;99.90;;;;;;4986173;28;20050;-78
2022/09/08 00:54:17;;;;;;;34.92;26.95;;;16.40;99.90;;;;;;4989446;28;20045;-78
2022/09/08 00:56:45;;;;;;;36.75;27.15;;;16.40;99.90;;;;;;4987914;28;20042;-78
2022/09/08 00:59:13;;;;;;;31.73;28.08;;;16.40;99.90;;;;;;4972887;28;20105;-78
2022/09/08 01:01:39;;;;;;;35.33;28.58;;;16.40;99.90;;;;;;4972215;28;20116;-78
2022/09/08 01:04:05;;;;;;;40.03;30.10;;;16.40;99.90;;;;;;4975466;28;20034;-80
2022/09/08 01:12:45;;;;;;;;;;;16.50;99.90;;;;;;5004726;28;20041;-81
2022/09/08 01:15:23;;;;;;;43.43;34.17;;;16.40;99.90;;;;;;4988578;28;19976;-79
2022/09/08 01:17:51;;;;;;;43.63;32.53;;;16.40;99.90;;;;;;4972756;28;20089;-77
2022/09/08 01:20:20;;;;;;;36.58;31.42;;;16.40;99.90;;;;;;5001704;28;20065;-78
2022/09/08 01:23:20;;;;;;;44.20;33.77;;;16.40;99.90;;;;;;4983936;28;20050;-78
2022/09/08 01:26:06;;;;;;;39.22;31.60;;;16.40;99.90;;;;;;4939360;28;20065;-77
2022/09/08 01:29:10;;;;;;;38.50;32.67;;;16.40;99.90;;;;;;4985119;28;20048;-79
2022/09/08 01:31:40;;;;;;;39.90;31.52;;;16.40;99.90;;;;;;4971362;28;20054;-79
2022/09/08 01:34:06;;;;;;;42.50;32.72;;;16.30;99.90;;;;;;4984063;28;20052;-77
2022/09/08 01:36:32;;;;;;;44.22;33.90;;;16.30;99.90;;;;;;4980422;28;20432;-79
2022/09/08 01:38:58;;;;;;;42.45;33.97;;;16.30;99.90;;;;;;4984977;28;20042;-78
2022/09/08 01:41:23;;;;;;;43.28;34.75;;;16.30;99.90;;;;;;4984640;28;20057;-77
2022/09/08 01:43:50;;;;;;;41.97;34.17;;;16.30;99.90;;;;;;4984974;28;20042;-77
2022/09/08 01:46:15;;;;;;;50.13;35.58;;;16.20;99.90;;;;;;4989331;28;20057;-78
2022/09/08 01:48:41;;;;;;;44.38;34.33;;;16.20;99.90;;;;;;4988449;28;20046;-77
2022/09/08 01:51:08;;;;;;;38.47;32.45;;;16.20;99.90;;;;;;4973006;28;20089;-78
2022/09/08 01:53:34;;;;;;;48.75;35.63;;;16.30;99.90;;;;;;4988103;28;20591;-77
2022/09/08 01:56:01;;;;;;;47.90;36.17;;;16.30;99.90;;;;;;4989657;28;20053;-78
2022/09/08 01:58:27;;;;;;;45.97;36.13;;;16.30;99.90;;;;;;4989030;28;20101;-78
2022/09/08 02:00:53;;;;;;;47.03;35.20;;;16.20;99.90;;;;;;4972031;28;20108;-79
2022/09/08 02:03:19;;;;;;;43.75;34.95;;;16.20;99.90;;;;;;4973331;28;20374;-79
2022/09/08 02:05:45;;;;;;;48.42;37.90;;;16.20;99.90;;;;;;4971856;28;20121;-80
2022/09/08 02:08:11;;;;;;;50.88;37.22;;;16.20;99.90;;;;;;4957211;28;20579;-78
2022/09/08 02:10:38;;;;;;;50.55;36.95;;;16.20;99.90;;;;;;4987850;28;20421;-77
2022/09/08 02:13:05;;;;;;;44.08;35.92;;;16.20;99.90;;;;;;4988783;28;20085;-77
2022/09/08 02:15:31;;;;;;;47.33;37.55;;;16.20;99.90;;;;;;4988555;28;20474;-77
2022/09/08 02:17:58;;;;;;;48.97;36.55;;;16.20;99.90;;;;;;4988615;28;20129;-76
2022/09/08 02:20:24;;;;;;;48.17;37.50;;;16.20;99.90;;;;;;4988225;28;20448;-79
2022/09/08 02:22:52;;;;;;;44.67;34.20;;;16.20;99.90;;;;;;4954354;28;20053;-78
2022/09/08 02:25:18;;;;;;;48.00;37.97;;;16.20;99.90;;;;;;4988703;28;20084;-75
2022/09/08 02:27:44;;;;;;;50.05;36.42;;;16.20;99.90;;;;;;4971451;28;20089;-77
2022/09/08 02:30:11;;;;;;;45.40;34.97;;;16.20;99.90;;;;;;4988704;28;20042;-75
2022/09/08 02:32:37;;;;;;;50.28;36.15;;;16.20;99.90;;;;;;4987384;28;20046;-75
2022/09/08 02:35:03;;;;;;;45.42;36.13;;;16.20;99.90;;;;;;4988676;28;20051;-76
2022/09/08 02:37:28;;;;;;;47.35;35.92;;;16.20;99.90;;;;;;4988227;28;20089;-76
2022/09/08 02:39:54;;;;;;;48.92;35.50;;;16.20;99.90;;;;;;4971303;28;20477;-76
2022/09/08 02:42:20;;;;;;;46.70;36.45;;;16.20;99.90;;;;;;4987650;28;20058;-75
2022/09/08 02:44:46;;;;;;;49.28;37.00;;;16.20;99.90;;;;;;4986868;28;20042;-77
2022/09/08 02:47:11;;;;;;;46.92;37.05;;;16.20;99.90;;;;;;4988510;28;20077;-76
2022/09/08 02:49:37;;;;;;;44.00;36.55;;;16.20;99.90;;;;;;4991305;28;20053;-76
2022/09/08 02:52:03;;;;;;;53.38;38.15;;;16.20;99.90;;;;;;4987110;28;20061;-77
2022/09/08 02:54:29;;;;;;;43.95;36.33;;;16.20;99.90;;;;;;4987958;28;20038;-78
2022/09/08 02:56:54;;;;;;;52.35;40.35;;;16.20;99.90;;;;;;4986126;28;20609;-77
2022/09/08 02:59:20;;;;;;;58.42;40.20;;;16.20;99.90;;;;;;4987625;28;20050;-78
2022/09/08 03:01:46;;;;;;;55.67;41.22;;;16.20;99.90;;;;;;4982371;28;20493;-76
2022/09/08 03:04:12;;;;;;;54.30;36.78;;;16.30;99.90;;;;;;4972043;28;20440;-77
2022/09/08 03:06:39;;;;;;;54.17;39.28;;;16.30;99.90;;;;;;4986810;28;20046;-76
2022/09/08 03:09:06;;;;;;;49.65;37.72;;;16.20;99.90;;;;;;4987743;28;20122;-77
2022/09/08 03:11:33;;;;;;;49.92;38.35;;;16.30;99.90;;;;;;4988634;28;20121;-77
2022/09/08 03:14:00;;;;;;;50.97;37.28;;;16.30;99.90;;;;;;4983184;28;20125;-76
2022/09/08 03:16:26;;;;;;;50.63;35.53;;;16.30;99.90;;;;;;4986939;28;20378;-77
2022/09/08 03:18:53;;;;;;;45.42;35.28;;;16.30;99.90;;;;;;4986839;28;20157;-77
2022/09/08 03:21:19;;;;;;;46.92;36.83;;;16.30;99.90;;;;;;4969886;28;20062;-76
2022/09/08 03:23:45;;;;;;;50.25;38.28;;;16.30;99.90;;;;;;4975391;28;20035;-77
2022/09/08 03:26:16;;;;;;;45.38;35.33;;;16.30;99.90;;;;;;4970429;28;20501;-77
2022/09/08 03:28:42;;;;;;;46.03;36.55;;;16.30;99.90;;;;;;4986809;28;20129;-77
2022/09/08 03:31:14;;;;;;;46.80;37.00;;;16.30;99.90;;;;;;4968895;28;20034;-77
2022/09/08 03:33:41;;;;;;;48.13;36.72;;;16.30;99.90;;;;;;4983937;28;20049;-77
2022/09/08 03:36:09;;;;;;;51.05;38.53;;;16.40;99.90;;;;;;4971332;28;20390;-77
2022/09/08 03:38:35;;;;;;;52.53;39.80;;;16.40;99.90;;;;;;4987033;28;20065;-77
2022/09/08 03:41:09;;;;;;;42.85;35.40;;;16.40;99.90;;;;;;4970079;28;20046;-77
2022/09/08 03:43:35;;;;;;;47.53;35.20;;;16.40;99.90;;;;;;4982310;28;20089;-76
2022/09/08 03:46:06;;;;;;;47.08;34.53;;;16.40;99.90;;;;;;4990782;28;20413;-76
2022/09/08 03:48:33;;;;;;;50.10;36.22;;;16.40;99.90;;;;;;4978610;28;20035;-76
2022/09/08 03:51:08;;;;;;;43.60;35.63;;;16.40;99.90;;;;;;4986170;28;20112;-77
2022/09/08 03:53:33;;;;;;;43.00;33.60;;;16.50;99.90;;;;;;4984425;28;20068;-76
2022/09/08 03:55:59;;;;;;;38.15;32.70;;;16.40;99.90;;;;;;4951430;28;20497;-76
2022/09/08 03:58:25;;;;;;;47.08;32.38;;;16.50;99.90;;;;;;4998415;28;20042;-76
2022/09/08 04:00:51;;;;;;;40.55;33.15;;;16.50;99.90;;;;;;4951030;28;20489;-77
2022/09/08 04:03:17;;;;;;;42.17;33.80;;;16.50;99.90;;;;;;4996586;28;20058;-75
2022/09/08 04:05:42;;;;;;;40.33;33.00;;;16.50;99.90;;;;;;4970219;28;20412;-76
2022/09/08 04:08:08;;;;;;;37.85;32.13;;;16.60;99.90;;;;;;4979280;28;20054;-76
2022/09/08 04:10:34;;;;;;;40.78;32.60;;;16.60;99.90;;;;;;4996880;28;20130;-76
2022/09/08 04:13:00;;;;;;;42.05;33.08;;;16.60;99.90;;;;;;4969479;28;20050;-76
2022/09/08 04:15:25;;;;;;;40.80;34.05;;;16.60;99.90;;;;;;4969335;28;20054;-76
2022/09/08 04:17:51;;;;;;;40.80;33.45;;;16.60;99.90;;;;;;4953664;28;20046;-77
2022/09/08 04:20:18;;;;;;;48.60;36.63;;;16.60;99.90;;;;;;4985331;28;20174;-77
2022/09/08 04:22:44;;;;;;;48.40;35.33;;;16.60;99.90;;;;;;4985931;28;20939;-76
2022/09/08 04:25:10;;;;;;;49.42;37.22;;;16.60;99.90;;;;;;4985812;28;20050;-76
2022/09/08 04:27:36;;;;;;;45.90;36.92;;;16.60;99.90;;;;;;4984523;28;20035;-77
2022/09/08 04:30:02;;;;;;;45.95;36.38;;;16.60;99.90;;;;;;4997465;28;20043;-76
2022/09/08 04:32:27;;;;;;;50.45;36.83;;;16.70;99.90;;;;;;4978162;28;20038;-76
2022/09/08 04:34:53;;;;;;;50.08;37.25;;;16.60;99.90;;;;;;4985601;28;20046;-76
2022/09/08 04:37:19;;;;;;;49.10;36.58;;;16.60;99.90;;;;;;4985836;28;20329;-77
2022/09/08 04:39:48;;;;;;;49.20;36.45;;;16.60;99.90;;;;;;4985452;28;20050;-76
2022/09/08 04:42:13;;;;;;;48.28;38.10;;;16.60;99.90;;;;;;4985562;28;20076;-76
2022/09/08 04:44:39;;;;;;;50.78;37.38;;;16.60;99.90;;;;;;4969905;28;20480;-77
2022/09/08 04:47:05;;;;;;;51.95;38.80;;;16.60;99.90;;;;;;4985320;28;20046;-77
2022/09/08 04:49:30;;;;;;;54.33;36.70;;;16.60;99.90;;;;;;4985816;28;20104;-76
2022/09/08 04:51:56;;;;;;;45.78;36.45;;;16.60;99.90;;;;;;4968720;28;20065;-77
2022/09/08 04:54:22;;;;;;;50.60;37.25;;;16.60;99.90;;;;;;4969006;28;20034;-76
2022/09/08 04:56:49;;;;;;;48.75;35.35;;;16.60;99.90;;;;;;4993342;28;20045;-76
2022/09/08 04:59:16;;;;;;;46.65;35.92;;;16.70;99.90;;;;;;4985012;28;20084;-76
2022/09/08 05:01:41;;;;;;;45.75;37.58;;;16.70;99.90;;;;;;4985756;28;20444;-76
2022/09/08 05:04:08;;;;;;;47.00;36.42;;;16.70;99.90;;;;;;4984818;28;20049;-76
2022/09/08 05:06:35;;;;;;;42.60;34.25;;;16.70;99.90;;;;;;4985641;28;20054;-77
2022/09/08 05:09:04;;;;;;;49.67;36.75;;;16.70;99.90;;;;;;5000893;28;20042;-77
2022/09/08 05:11:31;;;;;;;49.78;39.15;;;16.70;99.90;;;;;;4986066;28;20049;-77
2022/09/08 05:13:57;;;;;;;48.50;35.55;;;16.70;99.90;;;;;;4985625;28;20042;-76
2022/09/08 05:16:25;;;;;;;49.13;35.38;;;16.70;99.90;;;;;;4984566;28;20134;-77
2022/09/08 05:18:56;;;;;;;43.97;34.60;;;16.70;99.90;;;;;;4989807;28;20053;-75
2022/09/08 05:21:23;;;;;;;39.60;33.15;;;16.70;99.90;;;;;;4982778;28;20409;-76
2022/09/08 05:23:53;;;;;;;40.95;33.85;;;16.70;99.90;;;;;;5000971;28;20501;-76
2022/09/08 05:26:21;;;;;;;44.25;36.42;;;16.70;99.90;;;;;;4969219;28;20034;-76
2022/09/08 05:28:47;;;;;;;48.97;36.40;;;16.60;99.90;;;;;;4984959;28;20107;-76
2022/09/08 05:31:18;;;;;;;46.47;35.05;;;16.60;99.90;;;;;;4984864;28;20082;-77
2022/09/08 05:33:44;;;;;;;43.22;33.20;;;16.60;99.90;;;;;;4984769;28;20046;-76
2022/09/08 05:36:22;;;;;;;45.13;33.85;;;16.60;99.90;;;;;;4969071;28;20157;-77
2022/09/08 05:38:48;;;;;;;40.05;34.85;;;16.60;99.90;;;;;;4980875;28;20136;-76
2022/09/08 05:41:15;;;;;;;44.50;33.83;;;16.60;99.90;;;;;;4984654;28;20132;-76
2022/09/08 05:43:41;;;;;;;49.42;36.90;;;16.60;99.90;;;;;;4985172;28;20421;-77
2022/09/08 05:46:08;;;;;;;42.38;34.38;;;16.60;99.90;;;;;;4968385;28;20053;-76
2022/09/08 05:48:33;;;;;;;41.88;33.70;;;16.60;99.90;;;;;;4983985;28;20097;-76
2022/09/08 05:50:59;;;;;;;43.35;33.92;;;16.60;99.90;;;;;;4983976;28;20517;-76
2022/09/08 05:53:26;;;;;;;42.28;34.08;;;16.60;99.90;;;;;;4985745;28;20046;-76
2022/09/08 05:56:01;;;;;;;43.75;33.78;;;16.60;99.90;;;;;;4984520;28;20057;-75
2022/09/08 05:58:28;;;;;;;48.33;33.38;;;16.70;99.90;;;;;;4975634;28;20465;-76
2022/09/08 06:00:56;;;;;;;37.92;31.63;;;16.70;99.90;;;;;;4984155;28;20590;-76
2022/09/08 06:03:22;;;;;;;43.03;31.10;;;16.70;99.90;;;;;;4984869;28;20057;-75
2022/09/08 06:05:48;;;;;;;38.58;31.15;;;16.80;99.90;;;;;;4985387;28;20121;-76
2022/09/08 06:08:13;;;;;;;43.70;33.38;;;16.80;99.90;;;;;;4967556;28;20659;-76
2022/09/08 06:10:39;;;;;;;43.10;32.92;;;16.80;99.90;;;;;;4982214;28;20101;-76
2022/09/08 06:13:05;;;;;;;45.95;32.55;;;16.80;99.90;;;;;;4954685;28;20045;-77
2022/09/08 06:15:31;;;;;;;38.20;32.33;;;16.90;99.90;;;;;;4969243;28;20042;-76
2022/09/08 06:18:01;;;;;;;39.10;31.52;;;16.80;99.90;;;;;;4983449;28;20108;-76
2022/09/08 06:20:28;;;;;;;42.33;30.58;;;16.90;99.90;;;;;;4971257;28;20107;-75
2022/09/08 06:22:53;;;;;;;43.83;33.17;;;16.90;99.90;;;;;;5002625;28;20053;-76
2022/09/08 06:25:19;;;;;;;44.10;32.50;;;16.90;99.90;;;;;;4987476;28;20099;-75
2022/09/08 06:28:02;;;;;;;39.72;31.70;;;16.90;99.90;;;;;;4988443;28;20049;-76
2022/09/08 06:30:28;;;;;;;40.47;32.45;;;16.90;99.90;;;;;;4987205;28;20519;-77
2022/09/08 06:32:57;;;;;;;36.92;30.48;;;16.90;99.90;;;;;;4990614;28;20394;-76
2022/09/08 06:35:44;;;;;;;40.33;31.80;;;16.90;99.90;;;;;;4991172;28;20049;-76
2022/09/08 06:38:14;;;;;;;41.35;32.42;;;16.80;99.90;;;;;;4991025;28;20401;-76
2022/09/08 06:40:44;;;;;;;41.13;32.40;;;16.80;99.90;;;;;;4991537;28;20046;-75
2022/09/08 06:43:13;;;;;;;34.10;29.67;;;16.80;99.90;;;;;;4974045;28;20591;-75
2022/09/08 06:45:44;;;;;;;36.75;29.50;;;16.80;99.90;;;;;;4991470;28;20497;-75
2022/09/08 06:48:21;;;;;;;34.25;28.60;;;16.80;99.90;;;;;;4990567;28;20081;-75
2022/09/08 06:51:05;;;;;;;33.40;27.40;;;16.80;99.90;;;;;;4991080;28;20605;-75
2022/09/08 06:54:08;;;;;;;34.67;28.92;;;16.90;99.90;;;;;;4990634;28;20577;-74
2022/09/08 06:57:09;;;;;;;33.85;28.15;;;16.90;99.90;;;;;;4990726;28;20050;-74
2022/09/08 06:59:59;;;;;;;32.65;26.90;;;16.90;99.90;;;;;;4974860;28;20054;-75
2022/09/08 07:02:37;;;;;;;38.85;27.80;;;16.90;99.90;;;;;;4989846;28;20046;-75
2022/09/08 07:05:28;;;;;;;33.75;27.73;;;16.90;99.90;;;;;;5003130;28;20046;-76
2022/09/08 07:08:14;;;;;;;34.55;28.25;;;16.90;99.90;;;;;;4980532;28;20124;-75
2022/09/08 07:10:50;;;;;;;32.45;27.23;;;16.90;99.90;;;;;;4990226;28;20504;-76
2022/09/08 07:13:39;;;;;;;33.88;27.67;;;16.90;99.90;;;;;;4973913;28;20048;-75
2022/09/08 07:16:15;;;;;;;37.03;27.90;;;16.90;99.90;;;;;;5006429;28;20531;-75
2022/09/08 07:18:48;;;;;;;36.17;27.88;;;16.90;99.90;;;;;;4990910;28;20463;-75
2022/09/08 07:21:55;;;;;;;34.90;27.90;;;16.90;99.90;;;;;;4989856;28;20050;-75
2022/09/08 07:24:27;;;;;;;34.70;25.38;;;16.90;99.90;;;;;;4988717;28;20060;-76
2022/09/08 07:26:59;;;;;;;36.53;26.40;;;16.90;99.90;;;;;;4990453;28;20457;-75
2022/09/08 07:29:35;;;;;;;41.15;28.77;;;16.90;99.90;;;;;;4986116;28;20809;-76
2022/09/08 07:32:02;;;;;;;39.55;28.90;;;16.90;99.90;;;;;;4988610;28;20042;-77
2022/09/08 07:34:32;;;;;;;38.65;30.58;;;16.90;99.90;;;;;;4990318;28;20053;-76
2022/09/08 07:37:01;;;;;;;;;;;16.90;99.90;;;;;;4990745;28;20342;-76
2022/09/08 07:39:38;;;;;;;41.53;29.65;;;16.80;99.90;;;;;;4988424;28;20472;-75
2022/09/08 07:42:06;;;;;;;35.63;28.30;;;16.80;99.90;;;;;;5002877;28;20121;-77
2022/09/08 07:44:34;;;;;;;33.10;28.60;;;16.90;99.90;;;;;;4972780;28;20050;-76
2022/09/08 07:47:27;;;;;;;34.58;29.95;;;16.90;99.90;;;;;;4977254;28;20084;-76
2022/09/08 07:49:59;;;;;;;40.65;32.05;;;16.90;99.90;;;;;;4991392;28;20049;-76
2022/09/08 07:52:47;;;;;;;44.55;33.83;;;16.90;99.90;;;;;;4989242;28;20136;-77
2022/09/08 07:55:22;;;;;;;42.28;33.17;;;16.90;99.90;;;;;;4989278;28;20096;-76
2022/09/08 07:58:09;;;;;;;41.28;32.67;;;17.00;99.90;;;;;;4989084;28;20034;-76
2022/09/08 08:00:50;;;;;;;44.15;33.38;;;17.10;99.90;;;;;;4986351;28;20081;-76
2022/09/08 08:03:21;;;;;;;39.83;31.92;;;17.10;99.90;;;;;;4989517;28;20627;-76
2022/09/08 08:06:15;;;;;;;46.72;33.75;;;17.10;99.90;;;;;;4989568;28;20396;-76
2022/09/08 08:09:11;;;;;;;39.22;31.27;;;17.20;99.90;;;;;;4979179;28;20054;-76
2022/09/08 08:11:59;;;;;;;41.03;34.00;;;17.20;99.90;;;;;;4966816;28;20485;-76
2022/09/08 08:14:46;;;;;;;42.47;32.53;;;17.30;99.90;;;;;;4979395;28;20038;-73
2022/09/08 08:17:44;;;;;;;38.95;30.98;;;17.30;99.90;;;;;;4988500;28;20123;-77
2022/09/08 08:20:28;;;;;;;40.58;30.58;;;17.40;99.90;;;;;;4981747;28;20058;-77
2022/09/08 08:23:31;;;;;;;37.28;31.48;;;17.40;99.90;;;;;;4974001;28;20143;-77
2022/09/08 08:26:28;;;;;;;38.35;28.33;;;17.40;99.90;;;;;;4986173;28;20049;-76
2022/09/08 08:29:31;;;;;;;39.58;29.15;;;17.50;99.90;;;;;;4985534;28;20039;-77
2022/09/08 08:32:23;;;;;;;30.83;27.27;;;17.50;99.90;;;;;;4961750;28;20061;-77
2022/09/08 08:34:57;;;;;;;34.22;26.20;;;17.50;99.90;;;;;;4985897;28;20108;-77
2022/09/08 08:37:29;;;;;;;29.70;24.35;;;17.50;99.90;;;;;;4978241;28;20074;-77
2022/09/08 08:39:55;;;;;;;31.40;25.67;;;17.50;99.90;;;;;;4972641;28;20046;-77
2022/09/08 08:42:45;;;;;;;30.98;25.88;;;17.50;99.90;;;;;;4977770;28;20035;-76
2022/09/08 08:46:05;;;;;;;29.50;24.10;;;17.50;99.90;;;;;;4968196;28;20108;-77
2022/09/08 08:48:49;;;;;;;30.33;24.80;;;17.50;99.90;;;;;;4968580;28;20086;-77
2022/09/08 08:51:26;;;;;;;28.08;24.52;;;17.60;99.90;;;;;;4984516;28;20053;-77
2022/09/08 08:54:11;;;;;;;30.35;23.77;;;17.70;99.90;;;;;;4974298;28;20486;-78
2022/09/08 08:56:49;;;;;;;29.58;23.77;;;17.70;99.90;;;;;;4984561;28;20129;-78
2022/09/08 08:59:43;;;;;;;32.33;23.08;;;17.80;99.90;;;;;;4982764;28;20038;-78
2022/09/08 09:02:39;;;;;;;26.70;21.63;;;17.80;99.90;;;;;;4981103;28;20512;-78
2022/09/08 09:05:25;;;;;;;33.25;23.08;;;17.80;99.90;;;;;;4984422;28;20050;-78
2022/09/08 09:08:08;;;;;;;26.58;22.20;;;17.80;99.90;;;;;;5002200;28;20512;-77
2022/09/08 09:11:01;;;;;;;27.92;22.50;;;17.90;99.90;;;;;;4984563;28;20054;-77
2022/09/08 09:13:54;;;;;;;25.48;22.67;;;18.00;99.90;;;;;;4968306;28;20488;-78
2022/09/08 09:16:29;;;;;;;28.65;22.70;;;18.10;99.90;;;;;;4984860;28;20046;-77
2022/09/08 09:19:13;;;;;;;27.80;22.63;;;18.20;99.90;;;;;;4983741;28;20164;-78
2022/09/08 09:21:47;;;;;;;25.27;22.63;;;18.20;99.90;;;;;;4998286;28;20428;-78
2022/09/08 09:24:37;;;;;;;25.83;21.33;;;18.30;99.90;;;;;;4984739;28;20102;-78
2022/09/08 09:27:25;;;;;;;26.02;23.33;;;18.30;99.90;;;;;;5000168;28;20389;-77
2022/09/08 09:30:25;;;;;;;25.17;22.48;;;18.20;99.90;;;;;;4984365;28;20074;-76
2022/09/08 09:33:11;;;;;;;26.38;22.30;;;18.20;99.90;;;;;;4969060;28;20054;-77
2022/09/08 09:36:10;;;;;;;26.25;22.77;;;18.10;99.90;;;;;;4979076;28;20058;-74
2022/09/08 09:38:41;;;;;;;29.33;22.90;;;17.90;99.90;;;;;;4998889;28;20073;-74
2022/09/08 09:41:38;;;;;;;32.13;23.25;;;17.90;99.90;;;;;;4985304;28;20061;-76
2022/09/08 09:44:06;;;;;;;32.72;22.50;;;17.80;99.90;;;;;;4995908;28;20548;-76
2022/09/08 09:47:06;;;;;;;30.00;23.02;;;17.90;99.90;;;;;;4983722;28;20049;-76
2022/09/08 09:49:40;;;;;;;;;;;17.90;99.90;;;;;;4960515;28;20038;-76
2022/09/08 09:52:51;;;;;;;29.80;22.67;;;17.90;99.90;;;;;;4962340;28;20362;-82
2022/09/08 09:55:50;;;;;;;27.23;22.77;;;17.90;99.90;;;;;;4957620;28;20054;-82
2022/09/08 09:58:41;;;;;;;;;;;17.90;99.90;;;;;;4987291;28;20057;-82
2022/09/08 10:01:21;;;;;;;22.83;20.15;;;17.90;99.90;;;;;;4983420;28;19926;-80
2022/09/08 10:04:18;;;;;;;29.38;21.95;;;17.80;99.90;;;;;;4979854;28;20049;-81
2022/09/08 10:06:52;;;;;;;27.17;21.92;;;17.70;99.90;;;;;;5003302;28;20111;-84
2022/09/08 10:09:24;;;;;;;29.88;20.35;;;17.70;99.90;;;;;;5004396;28;20810;-85
2022/09/08 10:12:20;;;;;;;27.85;21.83;;;17.70;99.90;;;;;;4988711;28;20038;-82
2022/09/08 10:15:20;;;;;;;31.55;23.38;;;17.70;99.90;;;;;;4970763;28;20042;-84
2022/09/08 10:18:18;;;;;;;28.92;22.40;;;17.60;99.90;;;;;;5003998;28;20047;-84
2022/09/08 10:21:02;;;;;;;23.63;20.67;;;17.70;99.90;;;;;;4954621;28;20050;-85
2022/09/08 10:23:48;;;;;;;18.35;15.40;;;17.70;99.90;;;;;;4958951;28;20050;-87
2022/09/08 10:26:51;;;;;;;22.70;16.23;;;17.70;99.90;;;;;;4984404;28;20057;-84
2022/09/08 10:29:33;;;;;;;23.02;19.92;;;17.80;99.90;;;;;;4934989;28;20079;-84
2022/09/08 10:32:47;;;;;;;24.45;20.30;;;17.70;99.90;;;;;;4986831;28;20062;-83
2022/09/08 10:35:37;;;;;;;25.42;20.55;;;17.80;99.90;;;;;;4960842;28;20144;-83
2022/09/08 10:38:17;;;;;;;22.80;19.00;;;17.80;99.90;;;;;;5003257;28;20074;-83
2022/09/08 10:40:58;;;;;;;20.60;17.90;;;17.80;99.90;;;;;;4971645;28;20046;-82
2022/09/08 10:43:35;;;;;;;22.90;17.17;;;17.90;99.90;;;;;;4988037;28;20505;-83
2022/09/08 10:46:37;;;;;;;20.67;17.33;;;17.90;99.90;;;;;;4978824;28;20408;-83
2022/09/08 10:49:19;;;;;;;22.08;18.92;;;17.90;99.90;;;;;;4930686;29;20599;-82
2022/09/08 10:51:54;;;;;;;21.85;16.52;;;17.90;99.90;;;;;;4991633;28;20454;-83
2022/09/08 10:54:34;;;;;;;23.67;16.63;;;17.90;99.90;;;;;;4986429;28;20382;-83
2022/09/08 10:57:04;;;;;;;18.40;15.95;;;17.90;99.90;;;;;;4984621;28;20050;-84
2022/09/08 10:59:39;;;;;;;18.60;15.50;;;17.90;99.90;;;;;;4970428;28;20568;-84
2022/09/08 11:02:14;;;;;;;18.42;15.65;;;17.80;99.90;;;;;;4986606;28;20046;-84
2022/09/08 11:04:58;;;;;;;21.55;17.35;;;17.80;99.90;;;;;;4986862;28;20133;-84
2022/09/08 11:07:42;;;;;;;24.48;16.85;;;17.80;99.90;;;;;;4984288;28;20133;-85
2022/09/08 11:10:27;;;;;;;22.15;16.40;;;17.80;99.90;;;;;;4986861;28;20539;-85
2022/09/08 11:13:05;;;;;;;24.70;16.38;;;17.90;99.90;;;;;;5003395;28;20050;-85
2022/09/08 11:15:54;;;;;;;21.23;17.20;;;17.90;99.90;;;;;;4954511;28;20053;-84
2022/09/08 11:19:00;;;;;;;25.13;18.15;;;17.90;99.90;;;;;;4957754;28;20042;-86
2022/09/08 11:21:36;;;;;;;21.08;16.95;;;17.90;99.90;;;;;;4961344;28;20347;-86
2022/09/08 11:24:22;;;;;;;22.70;16.90;;;17.90;99.90;;;;;;4986124;28;20127;-85
2022/09/08 11:27:06;;;;;;;21.65;16.73;;;17.90;99.90;;;;;;5003213;28;20510;-84
2022/09/08 11:29:37;;;;;;;18.13;15.45;;;17.90;99.90;;;;;;4985487;28;20473;-84
2022/09/08 11:32:42;;;;;;;15.13;13.52;;;17.90;99.90;;;;;;4986022;28;20056;-84
2022/09/08 11:35:29;;;;;;;15.82;11.52;;;17.90;99.90;;;;;;4925562;29;20047;-83
2022/09/08 11:38:10;;;;;;;14.77;10.85;;;17.90;99.90;;;;;;4978103;28;20085;-83
2022/09/08 11:40:53;;;;;;;13.55;8.95;;;17.90;99.90;;;;;;4984377;28;20058;-84
2022/09/08 11:43:34;;;;;;;8.27;5.18;;;17.90;99.90;;;;;;4985097;28;20057;-86
2022/09/08 11:46:12;;;;;;;4.90;4.07;;;17.90;99.90;;;;;;4984537;28;20046;-87
2022/09/08 11:49:20;;;;;;;6.53;3.75;;;17.80;99.90;;;;;;4968683;28;20042;-88
2022/09/08 11:52:21;;;;;;;5.18;2.85;;;17.80;99.90;;;;;;4982377;28;20046;-87
2022/09/08 11:55:12;;;;;;;3.53;2.33;;;17.70;99.90;;;;;;4982899;28;20634;-87
2022/09/08 11:58:09;;;;;;;7.80;2.75;;;17.60;99.90;;;;;;4976517;28;20049;-87
2022/09/08 12:01:09;;;;;;;7.35;3.40;;;17.60;99.90;;;;;;4983868;28;20062;-87
2022/09/08 12:04:03;;;;;;;4.50;3.47;;;17.60;99.90;;;;;;4984699;28;20093;-87
2022/09/08 12:06:34;;;;;;;4.68;3.25;;;17.60;99.90;;;;;;4986412;28;20116;-87
2022/09/08 12:09:41;;;;;;;5.50;3.17;;;17.50;99.90;;;;;;4985958;28;20050;-88
2022/09/08 12:12:06;;;;;;;6.35;3.58;;;17.50;99.90;;;;;;4962373;28;20054;-87
2022/09/08 12:14:50;;;;;;;4.85;3.15;;;17.50;99.90;;;;;;4987094;28;20050;-87
2022/09/08 12:17:19;;;;;;;6.18;3.03;;;17.50;99.90;;;;;;4986176;28;20050;-86
2022/09/08 12:20:03;;;;;;;5.35;2.95;;;17.50;99.90;;;;;;4969503;28;20081;-86
2022/09/08 12:22:29;;;;;;;3.28;2.33;;;17.50;99.90;;;;;;4967906;28;20133;-88
2022/09/08 12:25:28;;;;;;;5.15;2.63;;;17.40;99.90;;;;;;4973814;28;20140;-88
2022/09/08 12:28:06;;;;;;;4.03;2.70;;;17.40;99.90;;;;;;4988809;28;20054;-87
2022/09/08 12:30:55;;;;;;;5.25;2.53;;;17.40;99.90;;;;;;4972765;28;20091;-87
2022/09/08 12:33:55;;;;;;;2.58;1.88;;;17.40;99.90;;;;;;4988970;28;20125;-87
2022/09/08 12:36:43;;;;;;;4.10;1.75;;;17.40;99.90;;;;;;4973175;28;20424;-85
2022/09/08 12:39:32;;;;;;;3.83;2.13;;;17.40;99.90;;;;;;5004947;28;20052;-87
2022/09/08 12:42:00;;;;;;;3.95;1.73;;;17.40;99.90;;;;;;4958493;28;20181;-86
2022/09/08 12:44:26;;;;;;;2.75;1.42;;;17.40;99.90;;;;;;4973594;28;20645;-85
2022/09/08 12:47:07;;;;;;;2.75;1.48;;;17.40;99.90;;;;;;4971720;28;20399;-85
2022/09/08 12:50:01;;;;;;;4.90;1.60;;;17.40;99.90;;;;;;4973641;28;20045;-85
2022/09/08 12:52:53;;;;;;;3.55;1.67;;;17.40;99.90;;;;;;4989191;28;20440;-85
2022/09/08 12:55:28;;;;;;;2.67;1.67;;;17.30;99.90;;;;;;4942012;28;20095;-84
2022/09/08 12:57:57;;;;;;;1.77;1.60;;;17.30;99.90;;;;;;4972335;28;20096;-86
2022/09/08 13:00:30;;;;;;;3.05;1.50;;;17.30;99.90;;;;;;4972258;28;20042;-84
2022/09/08 13:03:18;;;;;;;2.10;1.58;;;17.30;99.90;;;;;;4982970;28;20077;-81
2022/09/08 13:05:57;;;;;;;2.67;1.50;;;17.30;99.90;;;;;;4972603;28;20137;-82
2022/09/08 13:08:26;;;;;;;;;;;17.30;99.90;;;;;;4988496;28;20050;-85
2022/09/08 13:11:27;;;;;;;5.70;1.55;;;17.20;99.90;;;;;;4972698;28;19933;-83
2022/09/08 13:14:04;;;;;;;1.58;0.70;;;17.10;99.90;;;;;;4951503;28;20054;-82
2022/09/08 13:16:55;;;;;;;1.40;0.80;;;17.20;99.90;;;;;;4971296;28;20404;-82
2022/09/08 13:19:34;;;;;;;0.93;0.90;;;17.20;99.90;;;;;;4973066;28;20041;-81
2022/09/08 13:22:31;;;;;;;2.25;1.33;;;17.10;99.90;;;;;;5000285;28;20062;-82